sensor_id;sensor_type;location;lat;lon;timestamp;pressure;altitude;pressure_sealevel;temperature;humidity
28797;BME280;24974;54.444;18.560;2022-10-26T05:44:12;101357.44;;;13.59;73.35
28797;BME280;24974;54.444;18.560;2022-10-26T05:46:46;101364.63;;;14.13;71.36
28797;BME280;24974;54.444;18.560;2022-10-26T05:49:17;101364.38;;;14.01;71.57
28797;BME280;24974;54.444;18.560;2022-10-26T05:51:47;101367.56;;;13.94;72.18
28797;BME280;24974;54.444;18.560;2022-10-26T05:54:18;101372.13;;;13.68;72.55
28797;BME280;24974;54.444;18.560;2022-10-26T05:56:49;101376.84;;;13.90;72.15
28797;BME280;24974;54.444;18.560;2022-10-26T05:59:21;101376.63;;;13.86;72.26
28797;BME280;24974;54.444;18.560;2022-10-26T06:02:18;101383.97;;;13.68;72.81
28797;BME280;24974;54.444;18.560;2022-10-26T06:04:56;101396.88;;;13.73;72.59
28797;BME280;24974;54.444;18.560;2022-10-26T06:07:32;101388.16;;;13.43;73.57
28797;BME280;24974;54.444;18.560;2022-10-26T06:10:03;101383.50;;;13.89;72.41
28797;BME280;24974;54.444;18.560;2022-10-26T06:12:34;101394.03;;;13.64;72.77
28797;BME280;24974;54.444;18.560;2022-10-26T06:15:06;101377.06;;;14.02;71.29
28797;BME280;24974;54.444;18.560;2022-10-26T06:23:31;101395.84;;;14.14;71.30
28797;BME280;24974;54.444;18.560;2022-10-26T06:31:58;101410.41;;;13.83;71.91
28797;BME280;24974;54.444;18.560;2022-10-26T06:34:33;101408.41;;;14.20;70.94
28797;BME280;24974;54.444;18.560;2022-10-26T06:37:06;101405.00;;;14.00;71.71
28797;BME280;24974;54.444;18.560;2022-10-26T06:39:41;101411.09;;;14.42;70.44
28797;BME280;24974;54.444;18.560;2022-10-26T06:42:14;101416.59;;;14.34;70.03
28797;BME280;24974;54.444;18.560;2022-10-26T06:44:45;101417.72;;;14.55;69.49
28797;BME280;24974;54.444;18.560;2022-10-26T06:47:37;101417.78;;;14.72;68.81
28797;BME280;24974;54.444;18.560;2022-10-26T06:56:01;101423.75;;;15.05;67.92
28797;BME280;24974;54.444;18.560;2022-10-26T06:58:35;101433.03;;;15.01;67.34
28797;BME280;24974;54.444;18.560;2022-10-26T07:01:09;101445.13;;;14.74;68.23
28797;BME280;24974;54.444;18.560;2022-10-26T07:03:41;101426.59;;;15.40;66.44
28797;BME280;24974;54.444;18.560;2022-10-26T07:06:12;101441.50;;;14.65;68.39
28797;BME280;24974;54.444;18.560;2022-10-26T07:08:43;101437.69;;;14.83;67.76
28797;BME280;24974;54.444;18.560;2022-10-26T07:11:13;101438.38;;;14.97;67.92
28797;BME280;24974;54.444;18.560;2022-10-26T07:13:44;101445.13;;;14.74;68.28
28797;BME280;24974;54.444;18.560;2022-10-26T07:16:15;101444.66;;;15.29;66.84
28797;BME280;24974;54.444;18.560;2022-10-26T07:18:46;101433.78;;;15.58;65.63
28797;BME280;24974;54.444;18.560;2022-10-26T07:21:17;101441.75;;;15.51;65.65
28797;BME280;24974;54.444;18.560;2022-10-26T07:23:47;101448.94;;;15.52;65.54
28797;BME280;24974;54.444;18.560;2022-10-26T07:26:18;101448.63;;;15.71;65.07
28797;BME280;24974;54.444;18.560;2022-10-26T07:28:49;101461.16;;;15.60;65.22
28797;BME280;24974;54.444;18.560;2022-10-26T07:31:20;101461.63;;;15.45;65.17
28797;BME280;24974;54.444;18.560;2022-10-26T07:33:52;101456.13;;;15.71;65.05
28797;BME280;24974;54.444;18.560;2022-10-26T07:36:23;101460.84;;;16.31;62.93
28797;BME280;24974;54.444;18.560;2022-10-26T07:38:54;101454.84;;;15.85;64.13
28797;BME280;24974;54.444;18.560;2022-10-26T07:41:25;101461.28;;;16.41;62.77
28797;BME280;24974;54.444;18.560;2022-10-26T07:43:56;101462.28;;;16.45;62.30
28797;BME280;24974;54.444;18.560;2022-10-26T07:46:27;101465.59;;;16.21;62.86
28797;BME280;24974;54.444;18.560;2022-10-26T07:48:58;101472.72;;;16.48;62.35
28797;BME280;24974;54.444;18.560;2022-10-26T07:51:29;101477.31;;;16.18;62.88
28797;BME280;24974;54.444;18.560;2022-10-26T07:54:00;101473.66;;;16.61;61.97
28797;BME280;24974;54.444;18.560;2022-10-26T07:56:31;101473.50;;;16.49;62.56
28797;BME280;24974;54.444;18.560;2022-10-26T07:59:02;101479.38;;;16.56;61.46
28797;BME280;24974;54.444;18.560;2022-10-26T08:01:33;101483.53;;;16.15;63.33
28797;BME280;24974;54.444;18.560;2022-10-26T08:04:04;101478.66;;;16.85;61.11
28797;BME280;24974;54.444;18.560;2022-10-26T08:06:34;101487.69;;;17.12;60.26
28797;BME280;24974;54.444;18.560;2022-10-26T08:09:05;101485.94;;;16.98;60.62
28797;BME280;24974;54.444;18.560;2022-10-26T08:11:36;101494.50;;;16.85;61.02
28797;BME280;24974;54.444;18.560;2022-10-26T08:14:09;101487.47;;;16.87;60.68
28797;BME280;24974;54.444;18.560;2022-10-26T08:16:40;101491.25;;;16.74;61.30
28797;BME280;24974;54.444;18.560;2022-10-26T08:19:11;101487.91;;;16.25;62.38
28797;BME280;24974;54.444;18.560;2022-10-26T08:21:42;101498.56;;;15.97;63.27
28797;BME280;24974;54.444;18.560;2022-10-26T08:24:13;101497.22;;;16.12;62.95
28797;BME280;24974;54.444;18.560;2022-10-26T08:26:44;101489.72;;;16.30;62.53
28797;BME280;24974;54.444;18.560;2022-10-26T08:29:15;101504.72;;;16.11;62.98
28797;BME280;24974;54.444;18.560;2022-10-26T08:31:46;101499.00;;;16.25;62.76
28797;BME280;24974;54.444;18.560;2022-10-26T08:34:17;101511.75;;;15.91;64.01
28797;BME280;24974;54.444;18.560;2022-10-26T08:36:48;101501.78;;;16.98;60.80
28797;BME280;24974;54.444;18.560;2022-10-26T08:39:20;101510.91;;;16.43;62.39
28797;BME280;24974;54.444;18.560;2022-10-26T08:41:55;101516.56;;;16.81;61.28
28797;BME280;24974;54.444;18.560;2022-10-26T08:44:32;101516.81;;;16.24;62.95
28797;BME280;24974;54.444;18.560;2022-10-26T08:47:17;101520.31;;;17.23;60.49
28797;BME280;24974;54.444;18.560;2022-10-26T08:50:09;101515.63;;;17.45;59.84
28797;BME280;24974;54.444;18.560;2022-10-26T08:52:48;101519.03;;;16.65;61.68
28797;BME280;24974;54.444;18.560;2022-10-26T08:55:25;101520.34;;;16.76;61.76
28797;BME280;24974;54.444;18.560;2022-10-26T08:58:00;101519.91;;;17.42;59.75
28797;BME280;24974;54.444;18.560;2022-10-26T09:00:36;101519.78;;;17.59;58.91
28797;BME280;24974;54.444;18.560;2022-10-26T09:03:13;101514.84;;;17.65;58.98
28797;BME280;24974;54.444;18.560;2022-10-26T09:11:38;101529.47;;;16.77;61.35
28797;BME280;24974;54.444;18.560;2022-10-26T09:14:18;101526.75;;;17.06;60.43
28797;BME280;24974;54.444;18.560;2022-10-26T09:25:26;101540.53;;;17.62;58.90
28797;BME280;24974;54.444;18.560;2022-10-26T09:28:00;101537.06;;;18.15;57.04
28797;BME280;24974;54.444;18.560;2022-10-26T09:30:31;101544.63;;;17.56;58.11
28797;BME280;24974;54.444;18.560;2022-10-26T09:38:39;101545.47;;;18.28;56.25
28797;BME280;24974;54.444;18.560;2022-10-26T09:41:31;101547.38;;;18.15;56.53
28797;BME280;24974;54.444;18.560;2022-10-26T09:44:23;101543.84;;;18.60;55.10
28797;BME280;24974;54.444;18.560;2022-10-26T09:49:52;101549.34;;;17.64;56.99
28797;BME280;24974;54.444;18.560;2022-10-26T09:52:25;101552.59;;;17.37;57.65
28797;BME280;24974;54.444;18.560;2022-10-26T09:54:56;101561.56;;;17.04;58.24
28797;BME280;24974;54.444;18.560;2022-10-26T09:57:27;101555.38;;;16.98;58.58
28797;BME280;24974;54.444;18.560;2022-10-26T09:59:58;101557.38;;;16.81;58.15
28797;BME280;24974;54.444;18.560;2022-10-26T10:02:40;101549.84;;;16.90;58.39
28797;BME280;24974;54.444;18.560;2022-10-26T10:05:31;101556.59;;;16.71;58.86
28797;BME280;24974;54.444;18.560;2022-10-26T10:08:22;101552.25;;;17.00;58.20
28797;BME280;24974;54.444;18.560;2022-10-26T10:11:13;101561.22;;;17.05;57.65
28797;BME280;24974;54.444;18.560;2022-10-26T10:13:45;101557.56;;;17.22;56.98
28797;BME280;24974;54.444;18.560;2022-10-26T10:16:22;101555.88;;;17.68;55.97
28797;BME280;24974;54.444;18.560;2022-10-26T10:18:56;101554.28;;;17.29;56.85
28797;BME280;24974;54.444;18.560;2022-10-26T10:21:36;101555.78;;;17.85;55.55
28797;BME280;24974;54.444;18.560;2022-10-26T10:24:27;101561.50;;;17.21;57.34
28797;BME280;24974;54.444;18.560;2022-10-26T10:27:15;101559.47;;;17.01;57.70
28797;BME280;24974;54.444;18.560;2022-10-26T10:29:48;101566.09;;;17.85;55.15
28797;BME280;24974;54.444;18.560;2022-10-26T10:34:56;101564.06;;;17.35;56.25
28797;BME280;24974;54.444;18.560;2022-10-26T10:37:37;101568.13;;;17.38;55.63
28797;BME280;24974;54.444;18.560;2022-10-26T10:40:19;101572.66;;;17.80;54.52
28797;BME280;24974;54.444;18.560;2022-10-26T10:42:53;101567.19;;;17.33;55.64
28797;BME280;24974;54.444;18.560;2022-10-26T10:45:31;101578.91;;;17.39;55.28
28797;BME280;24974;54.444;18.560;2022-10-26T10:51:02;101583.94;;;17.84;54.01
28797;BME280;24974;54.444;18.560;2022-10-26T11:11:14;101598.03;;;18.62;52.17
28797;BME280;24974;54.444;18.560;2022-10-26T11:16:41;101597.19;;;17.40;54.71
28797;BME280;24974;54.444;18.560;2022-10-26T11:19:37;101595.94;;;18.59;51.60
28797;BME280;24974;54.444;18.560;2022-10-26T11:22:15;101609.41;;;19.48;50.00
28797;BME280;24974;54.444;18.560;2022-10-26T11:28:14;101606.97;;;19.34;49.19
28797;BME280;24974;54.444;18.560;2022-10-26T11:30:49;101611.34;;;19.11;50.14
28797;BME280;24974;54.444;18.560;2022-10-26T11:33:27;101613.09;;;18.82;50.10
28797;BME280;24974;54.444;18.560;2022-10-26T11:36:04;101622.84;;;18.13;52.57
28797;BME280;24974;54.444;18.560;2022-10-26T11:39:09;101619.09;;;18.72;51.28
28797;BME280;24974;54.444;18.560;2022-10-26T11:41:49;101622.19;;;18.91;50.79
28797;BME280;24974;54.444;18.560;2022-10-26T11:47:18;101628.66;;;18.41;52.19
28797;BME280;24974;54.444;18.560;2022-10-26T11:50:03;101634.28;;;18.12;52.79
28797;BME280;24974;54.444;18.560;2022-10-26T11:52:43;101635.66;;;18.27;53.14
28797;BME280;24974;54.444;18.560;2022-10-26T11:55:16;101627.78;;;17.78;54.61
28797;BME280;24974;54.444;18.560;2022-10-26T11:57:49;101635.31;;;18.07;54.01
28797;BME280;24974;54.444;18.560;2022-10-26T12:00:21;101634.72;;;18.64;52.25
28797;BME280;24974;54.444;18.560;2022-10-26T12:03:14;101630.22;;;18.51;53.03
28797;BME280;24974;54.444;18.560;2022-10-26T12:05:49;101633.19;;;19.21;51.34
28797;BME280;24974;54.444;18.560;2022-10-26T12:08:31;101634.13;;;19.37;51.04
28797;BME280;24974;54.444;18.560;2022-10-26T12:14:18;101648.91;;;17.32;54.23
28797;BME280;24974;54.444;18.560;2022-10-26T12:16:59;101632.00;;;17.84;53.16
28797;BME280;24974;54.444;18.560;2022-10-26T12:22:36;101644.69;;;17.18;55.18
28797;BME280;24974;54.444;18.560;2022-10-26T12:30:22;101644.31;;;18.04;53.99
28797;BME280;24974;54.444;18.560;2022-10-26T12:32:55;101649.06;;;18.04;53.41
28797;BME280;24974;54.444;18.560;2022-10-26T12:35:34;101644.94;;;17.80;54.16
28797;BME280;24974;54.444;18.560;2022-10-26T12:41:17;101649.22;;;18.28;52.88
28797;BME280;24974;54.444;18.560;2022-10-26T12:43:49;101646.69;;;17.94;53.71
28797;BME280;24974;54.444;18.560;2022-10-26T12:48:54;101647.50;;;17.94;54.31
28797;BME280;24974;54.444;18.560;2022-10-26T13:07:50;101630.03;;;22.46;43.55
28797;BME280;24974;54.444;18.560;2022-10-26T13:10:23;101641.44;;;23.84;39.91
28797;BME280;24974;54.444;18.560;2022-10-26T13:12:58;101639.47;;;22.77;41.72
28797;BME280;24974;54.444;18.560;2022-10-26T13:15:52;101645.13;;;20.84;46.08
28797;BME280;24974;54.444;18.560;2022-10-26T13:18:24;101651.72;;;21.19;45.55
28797;BME280;24974;54.444;18.560;2022-10-26T13:21:09;101655.56;;;20.71;45.71
28797;BME280;24974;54.444;18.560;2022-10-26T13:23:57;101664.88;;;19.62;48.46
28797;BME280;24974;54.444;18.560;2022-10-26T13:32:48;101659.09;;;21.12;45.79
28797;BME280;24974;54.444;18.560;2022-10-26T13:35:23;101656.09;;;21.64;44.24
28797;BME280;24974;54.444;18.560;2022-10-26T13:37:55;101657.44;;;21.39;44.62
28797;BME280;24974;54.444;18.560;2022-10-26T13:40:27;101659.63;;;19.97;46.94
28797;BME280;24974;54.444;18.560;2022-10-26T13:43:03;101671.31;;;19.53;49.02
28797;BME280;24974;54.444;18.560;2022-10-26T13:45:55;101664.69;;;19.46;48.97
28797;BME280;24974;54.444;18.560;2022-10-26T13:48:39;101670.31;;;18.80;50.68
28797;BME280;24974;54.444;18.560;2022-10-26T13:51:24;101674.84;;;18.84;51.53
28797;BME280;24974;54.444;18.560;2022-10-26T13:54:11;101678.78;;;18.12;52.89
28797;BME280;24974;54.444;18.560;2022-10-26T13:59:24;101673.28;;;18.75;51.44
28797;BME280;24974;54.444;18.560;2022-10-26T14:04:50;101672.03;;;18.42;52.67
28797;BME280;24974;54.444;18.560;2022-10-26T14:07:29;101679.06;;;18.19;53.15
28797;BME280;24974;54.444;18.560;2022-10-26T14:10:03;101675.25;;;18.03;53.73
28797;BME280;24974;54.444;18.560;2022-10-26T14:12:34;101682.34;;;18.71;51.85
28797;BME280;24974;54.444;18.560;2022-10-26T14:15:08;101680.22;;;18.48;52.81
28797;BME280;24974;54.444;18.560;2022-10-26T14:17:39;101681.69;;;17.48;55.08
28797;BME280;24974;54.444;18.560;2022-10-26T14:20:19;101684.41;;;17.10;56.27
28797;BME280;24974;54.444;18.560;2022-10-26T14:22:51;101681.19;;;17.46;55.50
28797;BME280;24974;54.444;18.560;2022-10-26T14:25:28;101685.03;;;17.79;54.41
28797;BME280;24974;54.444;18.560;2022-10-26T14:28:01;101680.72;;;17.44;55.50
28797;BME280;24974;54.444;18.560;2022-10-26T14:30:34;101687.03;;;17.61;55.19
28797;BME280;24974;54.444;18.560;2022-10-26T14:33:18;101686.03;;;18.04;53.78
28797;BME280;24974;54.444;18.560;2022-10-26T14:35:50;101684.91;;;17.67;54.99
28797;BME280;24974;54.444;18.560;2022-10-26T14:38:24;101689.03;;;17.99;54.21
28797;BME280;24974;54.444;18.560;2022-10-26T14:40:56;101688.78;;;18.13;53.79
28797;BME280;24974;54.444;18.560;2022-10-26T14:43:27;101691.03;;;17.43;55.56
28797;BME280;24974;54.444;18.560;2022-10-26T14:45:58;101691.34;;;17.97;54.54
28797;BME280;24974;54.444;18.560;2022-10-26T14:48:33;101692.09;;;17.68;55.41
28797;BME280;24974;54.444;18.560;2022-10-26T14:51:14;101689.44;;;17.33;56.16
28797;BME280;24974;54.444;18.560;2022-10-26T14:53:54;101692.25;;;17.72;55.62
28797;BME280;24974;54.444;18.560;2022-10-26T15:02:17;101698.31;;;17.01;57.19
28797;BME280;24974;54.444;18.560;2022-10-26T15:04:57;101695.28;;;17.41;56.19
28797;BME280;24974;54.444;18.560;2022-10-26T15:07:36;101692.75;;;17.10;57.35
28797;BME280;24974;54.444;18.560;2022-10-26T15:13:31;101697.72;;;17.51;56.04
28797;BME280;24974;54.444;18.560;2022-10-26T15:16:15;101701.06;;;17.18;57.20
28797;BME280;24974;54.444;18.560;2022-10-26T15:18:52;101707.09;;;17.20;57.05
28797;BME280;24974;54.444;18.560;2022-10-26T15:21:29;101706.78;;;16.96;58.07
28797;BME280;24974;54.444;18.560;2022-10-26T15:24:01;101703.03;;;17.18;57.45
28797;BME280;24974;54.444;18.560;2022-10-26T15:26:33;101703.22;;;16.78;58.45
28797;BME280;24974;54.444;18.560;2022-10-26T15:29:04;101712.78;;;17.24;57.31
28797;BME280;24974;54.444;18.560;2022-10-26T15:31:34;101709.72;;;16.91;58.41
28797;BME280;24974;54.444;18.560;2022-10-26T15:34:12;101714.78;;;17.06;58.07
28797;BME280;24974;54.444;18.560;2022-10-26T15:36:43;101714.44;;;17.16;57.52
28797;BME280;24974;54.444;18.560;2022-10-26T15:39:13;101719.03;;;17.12;57.69
28797;BME280;24974;54.444;18.560;2022-10-26T15:41:46;101718.56;;;16.93;58.36
28797;BME280;24974;54.444;18.560;2022-10-26T15:44:20;101717.41;;;17.11;57.84
28797;BME280;24974;54.444;18.560;2022-10-26T15:46:51;101722.47;;;16.92;58.25
28797;BME280;24974;54.444;18.560;2022-10-26T15:49:22;101723.59;;;16.65;59.28
28797;BME280;24974;54.444;18.560;2022-10-26T15:51:53;101724.59;;;17.03;58.25
28797;BME280;24974;54.444;18.560;2022-10-26T15:54:25;101729.97;;;17.00;58.39
28797;BME280;24974;54.444;18.560;2022-10-26T15:56:56;101727.38;;;16.86;58.72
28797;BME280;24974;54.444;18.560;2022-10-26T15:59:27;101726.72;;;16.89;58.52
28797;BME280;24974;54.444;18.560;2022-10-26T16:01:58;101738.13;;;16.53;59.58
28797;BME280;24974;54.444;18.560;2022-10-26T16:04:28;101736.66;;;16.64;59.46
28797;BME280;24974;54.444;18.560;2022-10-26T16:07:00;101736.97;;;16.45;60.24
28797;BME280;24974;54.444;18.560;2022-10-26T16:09:35;101733.38;;;16.45;60.19
28797;BME280;24974;54.444;18.560;2022-10-26T16:12:14;101736.88;;;16.19;60.87
28797;BME280;24974;54.444;18.560;2022-10-26T16:14:45;101738.81;;;16.10;61.27
28797;BME280;24974;54.444;18.560;2022-10-26T16:17:16;101743.88;;;16.17;61.39
28797;BME280;24974;54.444;18.560;2022-10-26T16:19:47;101741.13;;;16.17;61.49
28797;BME280;24974;54.444;18.560;2022-10-26T16:22:17;101744.53;;;16.14;61.35
28797;BME280;24974;54.444;18.560;2022-10-26T16:24:48;101748.28;;;15.78;62.47
28797;BME280;24974;54.444;18.560;2022-10-26T16:27:19;101748.94;;;15.53;63.41
28797;BME280;24974;54.444;18.560;2022-10-26T16:29:50;101755.88;;;15.95;61.99
28797;BME280;24974;54.444;18.560;2022-10-26T16:32:20;101763.34;;;15.86;62.45
28797;BME280;24974;54.444;18.560;2022-10-26T16:34:51;101751.75;;;15.84;62.47
28797;BME280;24974;54.444;18.560;2022-10-26T16:37:22;101757.81;;;15.32;63.66
28797;BME280;24974;54.444;18.560;2022-10-26T16:39:53;101758.69;;;15.19;64.21
28797;BME280;24974;54.444;18.560;2022-10-26T16:42:24;101767.91;;;15.37;63.84
28797;BME280;24974;54.444;18.560;2022-10-26T16:44:54;101758.06;;;15.76;62.67
28797;BME280;24974;54.444;18.560;2022-10-26T16:47:25;101766.50;;;15.71;62.82
28797;BME280;24974;54.444;18.560;2022-10-26T16:49:57;101772.84;;;15.40;63.60
28797;BME280;24974;54.444;18.560;2022-10-26T16:52:27;101771.06;;;15.66;63.10
28797;BME280;24974;54.444;18.560;2022-10-26T16:54:58;101771.84;;;15.89;62.25
28797;BME280;24974;54.444;18.560;2022-10-26T16:57:30;101765.63;;;15.84;62.37
28797;BME280;24974;54.444;18.560;2022-10-26T17:00:01;101775.97;;;16.01;61.95
28797;BME280;24974;54.444;18.560;2022-10-26T17:02:32;101778.38;;;15.93;62.13
28797;BME280;24974;54.444;18.560;2022-10-26T17:05:03;101777.09;;;15.46;63.46
28797;BME280;24974;54.444;18.560;2022-10-26T17:07:35;101785.06;;;15.92;62.31
28797;BME280;24974;54.444;18.560;2022-10-26T17:10:06;101785.72;;;15.89;62.41
28797;BME280;24974;54.444;18.560;2022-10-26T17:12:36;101789.69;;;16.06;62.03
28797;BME280;24974;54.444;18.560;2022-10-26T17:15:07;101793.66;;;15.82;62.58
28797;BME280;24974;54.444;18.560;2022-10-26T17:17:39;101794.16;;;15.84;62.63
28797;BME280;24974;54.444;18.560;2022-10-26T17:20:10;101790.59;;;15.92;62.53
28797;BME280;24974;54.444;18.560;2022-10-26T17:22:41;101788.56;;;15.53;63.53
28797;BME280;24974;54.444;18.560;2022-10-26T17:25:12;101787.38;;;15.46;63.96
28797;BME280;24974;54.444;18.560;2022-10-26T17:27:43;101792.09;;;15.45;63.90
28797;BME280;24974;54.444;18.560;2022-10-26T17:30:13;101794.47;;;15.60;63.52
28797;BME280;24974;54.444;18.560;2022-10-26T17:32:44;101788.56;;;15.76;62.67
28797;BME280;24974;54.444;18.560;2022-10-26T17:35:15;101790.69;;;15.79;62.91
28797;BME280;24974;54.444;18.560;2022-10-26T17:37:46;101797.25;;;15.83;62.53
28797;BME280;24974;54.444;18.560;2022-10-26T17:40:17;101796.00;;;15.44;63.68
28797;BME280;24974;54.444;18.560;2022-10-26T17:42:48;101802.13;;;15.32;63.96
28797;BME280;24974;54.444;18.560;2022-10-26T17:45:18;101798.66;;;15.49;63.63
28797;BME280;24974;54.444;18.560;2022-10-26T17:47:49;101806.19;;;15.13;64.83
28797;BME280;24974;54.444;18.560;2022-10-26T17:50:20;101804.06;;;15.32;64.34
28797;BME280;24974;54.444;18.560;2022-10-26T17:52:51;101812.81;;;15.25;64.50
28797;BME280;24974;54.444;18.560;2022-10-26T17:55:21;101820.06;;;14.99;65.24
28797;BME280;24974;54.444;18.560;2022-10-26T17:57:52;101817.72;;;15.28;64.26
28797;BME280;24974;54.444;18.560;2022-10-26T18:00:23;101830.09;;;15.31;64.17
28797;BME280;24974;54.444;18.560;2022-10-26T18:02:54;101832.25;;;14.98;65.13
28797;BME280;24974;54.444;18.560;2022-10-26T18:05:24;101837.63;;;14.94;65.53
28797;BME280;24974;54.444;18.560;2022-10-26T18:07:56;101834.13;;;14.89;65.33
28797;BME280;24974;54.444;18.560;2022-10-26T18:10:27;101834.84;;;14.94;65.25
28797;BME280;24974;54.444;18.560;2022-10-26T18:12:58;101835.59;;;14.72;65.83
28797;BME280;24974;54.444;18.560;2022-10-26T18:15:29;101846.66;;;14.86;65.29
28797;BME280;24974;54.444;18.560;2022-10-26T18:17:59;101842.50;;;15.11;64.46
28797;BME280;24974;54.444;18.560;2022-10-26T18:20:30;101853.34;;;15.07;64.34
28797;BME280;24974;54.444;18.560;2022-10-26T18:23:01;101850.25;;;14.73;65.76
28797;BME280;24974;54.444;18.560;2022-10-26T18:25:32;101854.94;;;14.86;65.29
28797;BME280;24974;54.444;18.560;2022-10-26T18:28:03;101859.44;;;14.82;65.46
28797;BME280;24974;54.444;18.560;2022-10-26T18:30:34;101860.81;;;14.71;65.74
28797;BME280;24974;54.444;18.560;2022-10-26T18:33:04;101853.22;;;14.76;65.77
28797;BME280;24974;54.444;18.560;2022-10-26T18:35:35;101854.03;;;14.36;66.73
28797;BME280;24974;54.444;18.560;2022-10-26T18:38:06;101863.09;;;14.09;67.82
28797;BME280;24974;54.444;18.560;2022-10-26T18:40:36;101859.66;;;14.44;66.91
28797;BME280;24974;54.444;18.560;2022-10-26T18:43:07;101865.84;;;14.09;67.99
28797;BME280;24974;54.444;18.560;2022-10-26T18:45:38;101861.19;;;14.37;67.30
28797;BME280;24974;54.444;18.560;2022-10-26T18:48:09;101872.03;;;14.33;67.52
28797;BME280;24974;54.444;18.560;2022-10-26T18:50:40;101868.75;;;14.04;68.39
28797;BME280;24974;54.444;18.560;2022-10-26T18:53:10;101872.44;;;14.13;68.07
28797;BME280;24974;54.444;18.560;2022-10-26T18:55:45;101868.47;;;14.33;67.72
28797;BME280;24974;54.444;18.560;2022-10-26T18:58:16;101880.41;;;14.14;68.41
28797;BME280;24974;54.444;18.560;2022-10-26T19:00:47;101883.91;;;14.20;68.40
28797;BME280;24974;54.444;18.560;2022-10-26T19:03:18;101887.00;;;14.32;68.15
28797;BME280;24974;54.444;18.560;2022-10-26T19:05:48;101889.31;;;14.11;68.72
28797;BME280;24974;54.444;18.560;2022-10-26T19:08:19;101892.59;;;14.27;68.43
28797;BME280;24974;54.444;18.560;2022-10-26T19:10:50;101886.34;;;14.08;68.91
28797;BME280;24974;54.444;18.560;2022-10-26T19:13:21;101890.56;;;14.19;68.49
28797;BME280;24974;54.444;18.560;2022-10-26T19:16:03;101888.28;;;14.53;67.44
28797;BME280;24974;54.444;18.560;2022-10-26T19:18:34;101895.25;;;14.18;68.48
28797;BME280;24974;54.444;18.560;2022-10-26T19:21:16;101893.22;;;14.24;68.43
28797;BME280;24974;54.444;18.560;2022-10-26T19:23:50;101886.22;;;14.45;67.41
28797;BME280;24974;54.444;18.560;2022-10-26T19:26:25;101883.91;;;14.20;68.23
